createdAt,value
2023-01-21T00:01:49.732Z,-1.50
2023-01-21T00:06:52.149Z,-1.60
2023-01-21T00:11:54.562Z,-1.60
2023-01-21T00:16:58.459Z,-1.60
2023-01-21T00:22:00.939Z,-1.60
2023-01-21T00:27:03.213Z,-1.60
2023-01-21T00:32:06.735Z,-1.60
2023-01-21T00:37:09.117Z,-1.70
2023-01-21T00:42:11.354Z,-1.80
2023-01-21T00:47:15.356Z,-1.90
2023-01-21T00:52:17.594Z,-1.90
2023-01-21T00:57:19.801Z,-1.90
2023-01-21T01:02:23.702Z,-2.00
2023-01-21T01:07:25.807Z,-2.00
2023-01-21T01:12:30.102Z,-2.00
2023-01-21T01:17:33.909Z,-1.90
2023-01-21T01:22:35.891Z,-1.90
2023-01-21T01:27:38.435Z,-1.90
2023-01-21T01:32:42.032Z,-1.90
2023-01-21T01:37:44.284Z,-2.00
2023-01-21T01:42:46.255Z,-2.00
2023-01-21T01:47:58.382Z,-2.10
2023-01-21T01:53:02.295Z,-2.10
2023-01-21T01:58:08.051Z,-2.00
2023-01-21T02:03:29.679Z,-1.80
2023-01-21T02:08:34.653Z,-1.70
2023-01-21T02:13:36.603Z,-1.70
2023-01-21T02:18:47.077Z,-1.70
2023-01-21T02:24:22.761Z,-1.70
2023-01-21T02:29:47.886Z,-1.70
2023-01-21T02:34:55.660Z,-1.60
2023-01-21T02:40:10.952Z,-1.60
2023-01-21T02:45:21.698Z,-1.60
2023-01-21T02:50:28.943Z,-1.50
2023-01-21T02:55:32.811Z,-1.50
2023-01-21T03:00:59.195Z,-1.50
2023-01-21T03:06:30.431Z,-1.50
2023-01-21T03:11:32.779Z,-1.40
2023-01-21T03:17:00.775Z,-1.50
2023-01-21T03:22:09.847Z,-1.50
2023-01-21T03:27:15.198Z,-1.50
2023-01-21T03:32:20.045Z,-1.50
2023-01-21T03:37:29.257Z,-1.50
2023-01-21T03:42:32.098Z,-1.40
2023-01-21T03:47:36.763Z,-1.50
2023-01-21T03:52:42.921Z,-1.40
2023-01-21T03:57:44.926Z,-1.40
2023-01-21T04:02:47.185Z,-1.40
2023-01-21T04:07:50.458Z,-1.40
2023-01-21T04:12:52.511Z,-1.40
2023-01-21T04:17:54.488Z,-1.40
2023-01-21T04:22:57.745Z,-1.40
2023-01-21T04:27:59.736Z,-1.40
2023-01-21T04:33:02.196Z,-1.40
2023-01-21T04:38:06.205Z,-1.40
2023-01-21T04:43:08.641Z,-1.40
2023-01-21T04:48:10.861Z,-1.40
2023-01-21T04:53:14.415Z,-1.40
2023-01-21T04:58:16.363Z,-1.40
2023-01-21T05:03:18.693Z,-1.40
2023-01-21T05:08:22.120Z,-1.40
2023-01-21T05:13:24.258Z,-1.40
2023-01-21T05:18:26.616Z,-1.40
2023-01-21T05:23:30.477Z,-1.40
2023-01-21T05:28:32.721Z,-1.40
2023-01-21T05:33:36.479Z,-1.50
2023-01-21T05:38:40.569Z,-1.50
2023-01-21T05:43:42.587Z,-1.50
2023-01-21T05:48:44.817Z,-1.50
2023-01-21T05:53:48.502Z,-1.50
2023-01-21T05:58:50.564Z,-1.60
2023-01-21T06:03:53.037Z,-1.60
2023-01-21T06:08:56.564Z,-1.60
2023-01-21T06:13:58.810Z,-1.60
2023-01-21T06:19:00.836Z,-1.60
2023-01-21T06:24:04.761Z,-1.60
2023-01-21T06:29:06.907Z,-1.60
2023-01-21T06:34:09.222Z,-1.60
2023-01-21T06:39:13.153Z,-1.60
2023-01-21T06:44:15.465Z,-1.60
2023-01-21T06:49:17.810Z,-1.70
2023-01-21T06:54:21.561Z,-1.70
2023-01-21T06:59:23.735Z,-1.70
2023-01-21T07:04:27.521Z,-1.80
2023-01-21T07:09:31.293Z,-1.80
2023-01-21T07:14:33.605Z,-1.80
2023-01-21T07:19:35.508Z,-1.80
2023-01-21T07:24:39.471Z,-1.70
2023-01-21T07:29:41.602Z,-1.70
2023-01-21T07:34:43.545Z,-1.70
2023-01-21T07:39:47.341Z,-1.70
2023-01-21T07:44:49.407Z,-1.70
2023-01-21T07:49:53.093Z,-1.70
2023-01-21T07:54:56.772Z,-1.70
2023-01-21T07:59:58.946Z,-1.70
2023-01-21T08:05:00.835Z,-1.70
2023-01-21T08:10:05.066Z,-1.60
2023-01-21T08:15:09.388Z,-1.50
2023-01-21T08:20:13.236Z,-1.40
2023-01-21T08:25:17.488Z,-1.30
2023-01-21T08:30:19.794Z,-1.20
2023-01-21T08:35:22.154Z,-1.10
2023-01-21T08:40:27.633Z,-1.30
2023-01-21T08:45:30.862Z,-1.10
2023-01-21T08:50:33.107Z,-1.00
2023-01-21T08:55:36.281Z,-0.80
2023-01-21T09:00:38.571Z,-0.60
2023-01-21T09:05:40.975Z,-0.60
2023-01-21T09:11:03.338Z,-0.30
2023-01-21T09:16:09.463Z,0.10
2023-01-21T09:21:12.756Z,0.10
2023-01-21T09:26:17.952Z,0.00
2023-01-21T09:31:21.931Z,0.10
2023-01-21T09:36:26.366Z,-0.10
2023-01-21T09:41:36.634Z,-0.10
2023-01-21T09:46:44.721Z,-0.40
2023-01-21T09:51:53.778Z,-0.50
2023-01-21T09:57:31.812Z,-0.60
2023-01-21T10:02:49.473Z,-0.50
2023-01-21T10:07:59.968Z,-0.50
2023-01-21T10:13:15.700Z,-0.40
2023-01-21T10:18:23.982Z,-0.50
2023-01-21T10:23:30.243Z,-0.40
2023-01-21T10:28:33.065Z,-0.40
2023-01-21T10:33:36.589Z,-0.40
2023-01-21T10:38:44.970Z,-0.60
2023-01-21T10:43:52.401Z,-0.60
2023-01-21T10:49:02.247Z,-0.60
2023-01-21T10:54:13.915Z,-0.60
2023-01-21T10:59:18.777Z,-0.70
2023-01-21T11:04:24.113Z,-0.80
2023-01-21T11:09:29.798Z,-0.90
2023-01-21T11:14:32.066Z,-0.80
2023-01-21T11:19:35.819Z,-0.70
2023-01-21T11:24:45.741Z,-0.60
2023-01-21T11:29:50.241Z,-0.50
2023-01-21T11:35:00.747Z,-0.40
2023-01-21T11:40:07.089Z,-0.30
2023-01-21T11:45:29.199Z,-0.20
2023-01-21T11:50:35.895Z,-0.10
2023-01-21T11:55:41.700Z,-0.20
2023-01-21T12:00:47.485Z,-0.20
2023-01-21T12:05:53.729Z,-0.20
2023-01-21T12:10:58.155Z,-0.30
2023-01-21T12:16:29.685Z,-0.40
2023-01-21T12:21:47.521Z,-0.40
2023-01-21T12:26:54.080Z,-0.50
2023-01-21T12:32:02.916Z,-0.60
2023-01-21T12:37:12.112Z,-0.70
2023-01-21T12:42:19.428Z,-0.60
2023-01-21T12:47:29.596Z,-0.60
2023-01-21T12:52:41.549Z,-0.60
2023-01-21T12:57:49.691Z,-0.60
2023-01-21T13:02:59.896Z,-0.60
2023-01-21T13:08:18.694Z,-0.60
2023-01-21T13:13:26.944Z,-0.60
2023-01-21T13:18:35.865Z,-0.60
2023-01-21T13:23:46.428Z,-0.50
2023-01-21T13:28:55.865Z,-0.40
2023-01-21T13:34:06.367Z,-0.40
2023-01-21T13:39:20.604Z,-0.40
2023-01-21T13:45:01.713Z,-0.40
2023-01-21T13:50:18.071Z,-0.40
2023-01-21T13:55:38.391Z,-0.40
2023-01-21T14:00:45.213Z,-0.40
2023-01-21T14:05:52.302Z,-0.40
2023-01-21T14:11:00.647Z,-0.40
2023-01-21T14:16:33.795Z,-0.40
2023-01-21T14:22:01.291Z,-0.40
2023-01-21T14:27:25.406Z,-0.50
2023-01-21T14:32:32.998Z,-0.50
2023-01-21T14:37:42.907Z,-0.50
2023-01-21T14:42:50.262Z,-0.50
2023-01-21T14:47:53.966Z,-0.50
2023-01-21T14:52:56.604Z,-0.50
2023-01-21T14:58:02.357Z,-0.50
2023-01-21T15:03:17.368Z,-0.50
2023-01-21T15:08:24.013Z,-0.50
2023-01-21T15:13:36.883Z,-0.60
2023-01-21T15:18:41.899Z,-0.60
2023-01-21T15:23:44.075Z,-0.70
2023-01-21T15:28:49.808Z,-0.60
2023-01-21T15:33:57.719Z,-0.60
2023-01-21T15:39:03.441Z,-0.60
2023-01-21T15:44:36.030Z,-0.70
2023-01-21T15:49:51.678Z,-0.60
2023-01-21T15:55:02.037Z,-0.70
2023-01-21T16:00:24.999Z,-0.70
2023-01-21T16:05:35.564Z,-0.70
2023-01-21T16:10:47.651Z,-0.70
2023-01-21T16:16:05.089Z,-0.80
2023-01-21T16:21:07.836Z,-0.80
2023-01-21T16:26:10.164Z,-0.80
2023-01-21T16:31:15.153Z,-0.80
2023-01-21T16:36:18.579Z,-0.80
2023-01-21T16:41:31.236Z,-0.80
2023-01-21T16:46:38.490Z,-0.80
2023-01-21T16:51:43.873Z,-0.90
2023-01-21T16:56:49.814Z,-0.90
2023-01-21T17:01:55.719Z,-0.80
2023-01-21T17:06:59.242Z,-0.90
2023-01-21T17:12:07.601Z,-0.90
2023-01-21T17:17:13.354Z,-0.90
2023-01-21T17:22:19.373Z,-0.90
2023-01-21T17:27:23.615Z,-0.90
2023-01-21T17:32:33.059Z,-1.00
2023-01-21T17:37:47.183Z,-0.90
2023-01-21T17:42:54.600Z,-1.00
2023-01-21T17:48:10.226Z,-0.90
2023-01-21T17:53:22.935Z,-0.90
2023-01-21T17:58:52.435Z,-0.90
2023-01-21T18:03:57.620Z,-0.90
2023-01-21T18:09:00.187Z,-0.90
2023-01-21T18:14:03.702Z,-0.90
2023-01-21T18:19:07.791Z,-0.90
2023-01-21T18:24:12.911Z,-0.90
2023-01-21T18:29:17.416Z,-1.00
2023-01-21T18:34:21.935Z,-0.90
2023-01-21T18:39:25.184Z,-0.90
2023-01-21T18:44:29.859Z,-0.90
2023-01-21T18:49:34.238Z,-1.00
2023-01-21T18:54:37.395Z,-1.00
2023-01-21T18:59:40.943Z,-1.00
2023-01-21T19:04:47.188Z,-1.10
2023-01-21T19:09:51.657Z,-1.10
2023-01-21T19:14:54.573Z,-1.20
2023-01-21T19:20:00.222Z,-1.20
2023-01-21T19:25:03.602Z,-1.20
2023-01-21T19:30:21.468Z,-1.20
2023-01-21T19:35:30.575Z,-1.20
2023-01-21T19:40:34.388Z,-1.20
2023-01-21T19:45:37.905Z,-1.30
2023-01-21T19:50:46.818Z,-1.30
2023-01-21T19:56:18.835Z,-1.30
2023-01-21T20:01:25.538Z,-1.30
2023-01-21T20:06:32.704Z,-1.30
2023-01-21T20:11:35.940Z,-1.30
2023-01-21T20:16:46.161Z,-1.20
2023-01-21T20:22:01.708Z,-1.20
2023-01-21T20:27:09.564Z,-1.20
2023-01-21T20:32:17.568Z,-1.20
2023-01-21T20:37:22.572Z,-1.30
2023-01-21T20:42:27.267Z,-1.30
2023-01-21T20:47:38.314Z,-1.30
2023-01-21T20:52:47.604Z,-1.30
2023-01-21T20:57:49.859Z,-1.30
2023-01-21T21:02:56.904Z,-1.30
2023-01-21T21:08:04.840Z,-1.40
2023-01-21T21:13:07.717Z,-1.40
2023-01-21T21:18:13.382Z,-1.40
2023-01-21T21:23:17.433Z,-1.50
2023-01-21T21:28:21.476Z,-1.50
2023-01-21T21:33:25.854Z,-1.60
2023-01-21T21:38:30.638Z,-1.60
2023-01-21T21:43:40.161Z,-1.60
2023-01-21T21:48:43.838Z,-1.60
2023-01-21T21:53:48.605Z,-1.60
2023-01-21T21:58:52.555Z,-1.50
2023-01-21T22:03:55.908Z,-1.60
2023-01-21T22:09:00.585Z,-1.60
2023-01-21T22:14:04.710Z,-1.60
2023-01-21T22:19:06.828Z,-1.50
2023-01-21T22:24:11.896Z,-1.50
2023-01-21T22:29:14.500Z,-1.50
2023-01-21T22:34:17.049Z,-1.50
2023-01-21T22:39:20.973Z,-1.40
2023-01-21T22:44:23.287Z,-1.40
2023-01-21T22:49:25.791Z,-1.30
2023-01-21T22:54:29.667Z,-1.30
2023-01-21T22:59:33.785Z,-1.40
2023-01-21T23:04:36.092Z,-1.40
2023-01-21T23:09:40.335Z,-1.40
2023-01-21T23:14:42.619Z,-1.50
2023-01-21T23:19:44.994Z,-1.40
2023-01-21T23:24:48.478Z,-1.40
2023-01-21T23:29:50.954Z,-1.40
2023-01-21T23:34:56.498Z,-1.40
2023-01-21T23:40:00.168Z,-1.30
2023-01-21T23:45:02.545Z,-1.30
2023-01-21T23:50:08.690Z,-1.40
2023-01-21T23:55:14.834Z,-1.40
